sensor_id;sensor_type;location;lat;lon;timestamp;P1;durP1;ratioP1;P2;durP2;ratioP2
1925;SDS011;964;42.606;23.588;2023-05-20T06:08:32;11.57;;;9.80;;
1925;SDS011;964;42.606;23.588;2023-05-20T06:10:59;13.17;;;9.63;;
1925;SDS011;964;42.606;23.588;2023-05-20T06:13:26;10.87;;;8.73;;
1925;SDS011;964;42.606;23.588;2023-05-20T06:15:52;10.07;;;8.80;;
1925;SDS011;964;42.606;23.588;2023-05-20T06:18:19;10.77;;;9.30;;
1925;SDS011;964;42.606;23.588;2023-05-20T06:20:46;14.93;;;9.60;;
1925;SDS011;964;42.606;23.588;2023-05-20T06:23:19;10.87;;;8.83;;
1925;SDS011;964;42.606;23.588;2023-05-20T06:25:47;12.53;;;8.10;;
1925;SDS011;964;42.606;23.588;2023-05-20T06:28:13;10.50;;;9.10;;
1925;SDS011;964;42.606;23.588;2023-05-20T06:30:40;11.20;;;9.03;;
1925;SDS011;964;42.606;23.588;2023-05-20T06:33:07;9.40;;;8.27;;
1925;SDS011;964;42.606;23.588;2023-05-20T06:35:34;9.00;;;7.50;;
1925;SDS011;964;42.606;23.588;2023-05-20T06:38:00;9.37;;;8.30;;
1925;SDS011;964;42.606;23.588;2023-05-20T06:40:27;11.63;;;9.60;;
1925;SDS011;964;42.606;23.588;2023-05-20T06:42:55;10.10;;;7.97;;
1925;SDS011;964;42.606;23.588;2023-05-20T06:45:22;12.30;;;9.50;;
1925;SDS011;964;42.606;23.588;2023-05-20T06:47:49;10.60;;;9.00;;
1925;SDS011;964;42.606;23.588;2023-05-20T06:50:18;10.00;;;8.00;;
1925;SDS011;964;42.606;23.588;2023-05-20T06:52:45;10.93;;;9.23;;
1925;SDS011;964;42.606;23.588;2023-05-20T06:55:11;8.90;;;7.67;;
1925;SDS011;964;42.606;23.588;2023-05-20T06:57:38;9.33;;;7.80;;
1925;SDS011;964;42.606;23.588;2023-05-20T07:00:07;8.30;;;7.40;;
1925;SDS011;964;42.606;23.588;2023-05-20T07:02:34;9.80;;;7.50;;
1925;SDS011;964;42.606;23.588;2023-05-20T07:05:01;8.70;;;7.80;;
1925;SDS011;964;42.606;23.588;2023-05-20T07:07:28;8.50;;;7.50;;
1925;SDS011;964;42.606;23.588;2023-05-20T07:09:55;7.97;;;7.17;;
1925;SDS011;964;42.606;23.588;2023-05-20T07:12:22;7.73;;;6.93;;
1925;SDS011;964;42.606;23.588;2023-05-20T07:14:49;7.97;;;6.77;;
1925;SDS011;964;42.606;23.588;2023-05-20T07:17:17;10.30;;;6.40;;
1925;SDS011;964;42.606;23.588;2023-05-20T07:19:44;8.10;;;7.10;;
1925;SDS011;964;42.606;23.588;2023-05-20T07:22:10;8.47;;;7.10;;
1925;SDS011;964;42.606;23.588;2023-05-20T07:24:37;12.57;;;9.20;;
1925;SDS011;964;42.606;23.588;2023-05-20T07:27:04;12.30;;;7.30;;
1925;SDS011;964;42.606;23.588;2023-05-20T07:29:31;9.20;;;7.63;;
1925;SDS011;964;42.606;23.588;2023-05-20T07:31:58;9.97;;;7.60;;
1925;SDS011;964;42.606;23.588;2023-05-20T07:34:26;9.33;;;7.40;;
1925;SDS011;964;42.606;23.588;2023-05-20T07:36:52;9.40;;;6.60;;
1925;SDS011;964;42.606;23.588;2023-05-20T07:39:19;10.00;;;7.40;;
1925;SDS011;964;42.606;23.588;2023-05-20T07:41:46;9.10;;;6.80;;
1925;SDS011;964;42.606;23.588;2023-05-20T07:44:12;8.20;;;7.23;;
1925;SDS011;964;42.606;23.588;2023-05-20T07:46:39;10.93;;;7.27;;
1925;SDS011;964;42.606;23.588;2023-05-20T07:49:07;9.10;;;6.93;;
1925;SDS011;964;42.606;23.588;2023-05-20T07:51:35;8.80;;;7.87;;
1925;SDS011;964;42.606;23.588;2023-05-20T07:54:02;8.20;;;7.30;;
1925;SDS011;964;42.606;23.588;2023-05-20T07:56:29;12.00;;;7.40;;
1925;SDS011;964;42.606;23.588;2023-05-20T07:58:56;8.73;;;7.83;;
1925;SDS011;964;42.606;23.588;2023-05-20T08:01:24;7.83;;;6.73;;
1925;SDS011;964;42.606;23.588;2023-05-20T08:03:51;8.60;;;7.80;;
1925;SDS011;964;42.606;23.588;2023-05-20T08:06:18;9.97;;;7.67;;
1925;SDS011;964;42.606;23.588;2023-05-20T08:08:46;8.73;;;7.83;;
1925;SDS011;964;42.606;23.588;2023-05-20T08:11:13;8.47;;;7.53;;
1925;SDS011;964;42.606;23.588;2023-05-20T08:13:40;11.90;;;7.70;;
1925;SDS011;964;42.606;23.588;2023-05-20T08:16:06;9.90;;;8.90;;
1925;SDS011;964;42.606;23.588;2023-05-20T08:18:33;9.80;;;7.60;;
1925;SDS011;964;42.606;23.588;2023-05-20T08:21:02;8.87;;;7.67;;
1925;SDS011;964;42.606;23.588;2023-05-20T08:23:28;15.47;;;6.90;;
1925;SDS011;964;42.606;23.588;2023-05-20T08:25:57;9.23;;;6.97;;
1925;SDS011;964;42.606;23.588;2023-05-20T08:28:26;9.90;;;8.90;;
1925;SDS011;964;42.606;23.588;2023-05-20T08:30:52;20.10;;;9.77;;
1925;SDS011;964;42.606;23.588;2023-05-20T08:33:19;12.17;;;7.83;;
1925;SDS011;964;42.606;23.588;2023-05-20T08:35:46;11.57;;;7.53;;
1925;SDS011;964;42.606;23.588;2023-05-20T08:38:13;10.47;;;7.60;;
1925;SDS011;964;42.606;23.588;2023-05-20T08:40:40;9.10;;;6.63;;
1925;SDS011;964;42.606;23.588;2023-05-20T08:43:08;10.00;;;6.50;;
1925;SDS011;964;42.606;23.588;2023-05-20T08:45:36;11.00;;;6.87;;
1925;SDS011;964;42.606;23.588;2023-05-20T08:48:04;7.53;;;6.60;;
1925;SDS011;964;42.606;23.588;2023-05-20T08:50:31;12.40;;;7.03;;
1925;SDS011;964;42.606;23.588;2023-05-20T08:52:58;8.57;;;6.47;;
1925;SDS011;964;42.606;23.588;2023-05-20T08:55:25;7.67;;;6.47;;
1925;SDS011;964;42.606;23.588;2023-05-20T08:57:58;7.63;;;6.23;;
1925;SDS011;964;42.606;23.588;2023-05-20T09:00:26;7.47;;;5.60;;
1925;SDS011;964;42.606;23.588;2023-05-20T09:02:53;7.57;;;5.87;;
1925;SDS011;964;42.606;23.588;2023-05-20T09:05:20;7.87;;;6.67;;
1925;SDS011;964;42.606;23.588;2023-05-20T09:07:47;6.80;;;6.10;;
1925;SDS011;964;42.606;23.588;2023-05-20T09:10:14;9.47;;;6.77;;
1925;SDS011;964;42.606;23.588;2023-05-20T09:12:41;7.33;;;6.63;;
1925;SDS011;964;42.606;23.588;2023-05-20T09:15:08;9.40;;;6.77;;
1925;SDS011;964;42.606;23.588;2023-05-20T09:17:37;8.80;;;6.90;;
1925;SDS011;964;42.606;23.588;2023-05-20T09:20:08;6.67;;;5.97;;
1925;SDS011;964;42.606;23.588;2023-05-20T09:22:35;8.87;;;7.43;;
1925;SDS011;964;42.606;23.588;2023-05-20T09:25:04;7.87;;;6.53;;
1925;SDS011;964;42.606;23.588;2023-05-20T09:27:32;7.33;;;6.63;;
1925;SDS011;964;42.606;23.588;2023-05-20T09:29:59;8.60;;;6.30;;
1925;SDS011;964;42.606;23.588;2023-05-20T09:32:25;9.20;;;6.53;;
1925;SDS011;964;42.606;23.588;2023-05-20T09:34:54;7.13;;;6.30;;
1925;SDS011;964;42.606;23.588;2023-05-20T09:37:23;7.90;;;7.10;;
1925;SDS011;964;42.606;23.588;2023-05-20T09:39:54;6.57;;;5.97;;
1925;SDS011;964;42.606;23.588;2023-05-20T09:42:24;8.00;;;6.77;;
1925;SDS011;964;42.606;23.588;2023-05-20T09:44:53;8.40;;;6.67;;
1925;SDS011;964;42.606;23.588;2023-05-20T09:47:39;7.40;;;6.00;;
1925;SDS011;964;42.606;23.588;2023-05-20T09:50:08;6.30;;;5.70;;
1925;SDS011;964;42.606;23.588;2023-05-20T09:52:36;6.80;;;6.17;;
1925;SDS011;964;42.606;23.588;2023-05-20T09:55:04;6.10;;;5.60;;
1925;SDS011;964;42.606;23.588;2023-05-20T09:57:33;7.00;;;5.07;;
1925;SDS011;964;42.606;23.588;2023-05-20T10:00:00;6.90;;;6.17;;
1925;SDS011;964;42.606;23.588;2023-05-20T10:02:27;6.67;;;5.43;;
1925;SDS011;964;42.606;23.588;2023-05-20T10:04:54;6.60;;;5.93;;
1925;SDS011;964;42.606;23.588;2023-05-20T10:10:26;5.27;;;4.77;;
1925;SDS011;964;42.606;23.588;2023-05-20T10:13:04;6.33;;;5.30;;
1925;SDS011;964;42.606;23.588;2023-05-20T10:15:41;5.43;;;4.93;;
1925;SDS011;964;42.606;23.588;2023-05-20T10:18:17;6.57;;;5.33;;
1925;SDS011;964;42.606;23.588;2023-05-20T10:20:53;7.80;;;5.60;;
1925;SDS011;964;42.606;23.588;2023-05-20T10:23:22;7.30;;;5.60;;
1925;SDS011;964;42.606;23.588;2023-05-20T10:25:50;5.70;;;5.20;;
1925;SDS011;964;42.606;23.588;2023-05-20T10:28:24;9.83;;;4.90;;
1925;SDS011;964;42.606;23.588;2023-05-20T10:30:54;4.83;;;4.30;;
1925;SDS011;964;42.606;23.588;2023-05-20T10:33:21;6.67;;;6.03;;
1925;SDS011;964;42.606;23.588;2023-05-20T10:35:49;12.03;;;5.57;;
1925;SDS011;964;42.606;23.588;2023-05-20T10:38:16;5.40;;;4.90;;
1925;SDS011;964;42.606;23.588;2023-05-20T10:40:46;6.70;;;6.10;;
1925;SDS011;964;42.606;23.588;2023-05-20T10:43:13;5.43;;;4.93;;
1925;SDS011;964;42.606;23.588;2023-05-20T10:45:47;6.37;;;5.77;;
1925;SDS011;964;42.606;23.588;2023-05-20T10:48:19;8.70;;;6.20;;
1925;SDS011;964;42.606;23.588;2023-05-20T10:50:46;6.13;;;5.30;;
1925;SDS011;964;42.606;23.588;2023-05-20T10:53:14;6.40;;;5.70;;
1925;SDS011;964;42.606;23.588;2023-05-20T10:55:45;7.73;;;5.40;;
1925;SDS011;964;42.606;23.588;2023-05-20T10:58:17;6.50;;;5.90;;
1925;SDS011;964;42.606;23.588;2023-05-20T11:00:44;6.43;;;5.07;;
1925;SDS011;964;42.606;23.588;2023-05-20T11:03:14;8.30;;;5.80;;
1925;SDS011;964;42.606;23.588;2023-05-20T11:05:43;7.57;;;5.10;;
1925;SDS011;964;42.606;23.588;2023-05-20T11:08:10;6.00;;;5.00;;
1925;SDS011;964;42.606;23.588;2023-05-20T11:10:38;6.57;;;5.93;;
1925;SDS011;964;42.606;23.588;2023-05-20T11:13:06;6.40;;;5.40;;
1925;SDS011;964;42.606;23.588;2023-05-20T11:15:34;6.90;;;5.60;;
1925;SDS011;964;42.606;23.588;2023-05-20T11:18:02;7.30;;;6.10;;
1925;SDS011;964;42.606;23.588;2023-05-20T11:20:29;7.23;;;6.00;;
1925;SDS011;964;42.606;23.588;2023-05-20T11:22:59;8.10;;;6.53;;
1925;SDS011;964;42.606;23.588;2023-05-20T11:25:27;6.93;;;6.23;;
1925;SDS011;964;42.606;23.588;2023-05-20T11:27:54;6.43;;;5.83;;
1925;SDS011;964;42.606;23.588;2023-05-20T11:30:22;9.03;;;5.23;;
1925;SDS011;964;42.606;23.588;2023-05-20T11:32:55;7.50;;;6.23;;
1925;SDS011;964;42.606;23.588;2023-05-20T11:35:23;6.20;;;5.60;;
1925;SDS011;964;42.606;23.588;2023-05-20T11:37:57;6.67;;;5.53;;
1925;SDS011;964;42.606;23.588;2023-05-20T11:40:27;10.03;;;6.40;;
1925;SDS011;964;42.606;23.588;2023-05-20T11:42:54;5.67;;;5.07;;
1925;SDS011;964;42.606;23.588;2023-05-20T11:45:23;6.00;;;5.07;;
1925;SDS011;964;42.606;23.588;2023-05-20T11:47:58;6.57;;;5.87;;
1925;SDS011;964;42.606;23.588;2023-05-20T11:50:26;6.10;;;5.30;;
1925;SDS011;964;42.606;23.588;2023-05-20T11:52:56;6.97;;;6.27;;
1925;SDS011;964;42.606;23.588;2023-05-20T11:55:24;8.10;;;5.30;;
1925;SDS011;964;42.606;23.588;2023-05-20T11:57:51;7.50;;;5.40;;
1925;SDS011;964;42.606;23.588;2023-05-20T12:00:17;8.87;;;5.70;;
1925;SDS011;964;42.606;23.588;2023-05-20T12:02:46;6.00;;;5.10;;
1925;SDS011;964;42.606;23.588;2023-05-20T12:05:13;7.27;;;5.50;;
1925;SDS011;964;42.606;23.588;2023-05-20T12:07:40;7.13;;;4.90;;
1925;SDS011;964;42.606;23.588;2023-05-20T12:10:07;13.37;;;7.50;;
1925;SDS011;964;42.606;23.588;2023-05-20T12:12:35;7.87;;;5.17;;
1925;SDS011;964;42.606;23.588;2023-05-20T12:15:02;6.40;;;5.80;;
1925;SDS011;964;42.606;23.588;2023-05-20T12:17:29;6.47;;;5.13;;
1925;SDS011;964;42.606;23.588;2023-05-20T12:19:58;6.93;;;5.17;;
1925;SDS011;964;42.606;23.588;2023-05-20T12:22:25;8.40;;;4.80;;
1925;SDS011;964;42.606;23.588;2023-05-20T12:24:52;6.50;;;4.57;;
1925;SDS011;964;42.606;23.588;2023-05-20T12:27:18;6.63;;;5.40;;
1925;SDS011;964;42.606;23.588;2023-05-20T12:29:45;6.23;;;5.30;;
1925;SDS011;964;42.606;23.588;2023-05-20T12:32:11;11.60;;;6.40;;
1925;SDS011;964;42.606;23.588;2023-05-20T12:34:38;9.27;;;6.30;;
1925;SDS011;964;42.606;23.588;2023-05-20T12:37:06;8.60;;;6.90;;
1925;SDS011;964;42.606;23.588;2023-05-20T12:39:33;6.70;;;5.70;;
1925;SDS011;964;42.606;23.588;2023-05-20T12:42:00;6.10;;;5.50;;
1925;SDS011;964;42.606;23.588;2023-05-20T12:44:27;7.10;;;6.40;;
1925;SDS011;964;42.606;23.588;2023-05-20T12:46:54;7.97;;;5.53;;
1925;SDS011;964;42.606;23.588;2023-05-20T12:49:21;8.07;;;6.07;;
1925;SDS011;964;42.606;23.588;2023-05-20T12:51:48;6.27;;;5.30;;
1925;SDS011;964;42.606;23.588;2023-05-20T12:54:16;6.00;;;5.37;;
1925;SDS011;964;42.606;23.588;2023-05-20T12:56:43;6.00;;;5.40;;
1925;SDS011;964;42.606;23.588;2023-05-20T12:59:12;5.13;;;4.67;;
1925;SDS011;964;42.606;23.588;2023-05-20T13:01:39;7.93;;;5.70;;
1925;SDS011;964;42.606;23.588;2023-05-20T13:04:05;5.97;;;5.20;;
1925;SDS011;964;42.606;23.588;2023-05-20T13:06:32;6.57;;;5.20;;
1925;SDS011;964;42.606;23.588;2023-05-20T13:08:59;7.27;;;5.47;;
1925;SDS011;964;42.606;23.588;2023-05-20T13:11:27;6.70;;;6.00;;
1925;SDS011;964;42.606;23.588;2023-05-20T13:13:54;9.03;;;5.70;;
1925;SDS011;964;42.606;23.588;2023-05-20T13:16:21;7.70;;;5.80;;
1925;SDS011;964;42.606;23.588;2023-05-20T13:18:48;7.83;;;6.30;;
1925;SDS011;964;42.606;23.588;2023-05-20T13:21:15;10.13;;;5.73;;
1925;SDS011;964;42.606;23.588;2023-05-20T13:23:42;10.00;;;5.00;;
1925;SDS011;964;42.606;23.588;2023-05-20T13:26:08;7.47;;;6.20;;
1925;SDS011;964;42.606;23.588;2023-05-20T13:28:37;7.00;;;6.30;;
1925;SDS011;964;42.606;23.588;2023-05-20T13:31:04;7.90;;;6.03;;
1925;SDS011;964;42.606;23.588;2023-05-20T13:33:31;5.93;;;5.23;;
1925;SDS011;964;42.606;23.588;2023-05-20T13:35:58;7.90;;;5.97;;
1925;SDS011;964;42.606;23.588;2023-05-20T13:38:25;7.33;;;6.47;;
1925;SDS011;964;42.606;23.588;2023-05-20T13:40:51;6.90;;;6.20;;
1925;SDS011;964;42.606;23.588;2023-05-20T13:43:18;8.27;;;6.67;;
1925;SDS011;964;42.606;23.588;2023-05-20T13:45:46;6.93;;;5.47;;
1925;SDS011;964;42.606;23.588;2023-05-20T13:48:12;9.20;;;6.40;;
1925;SDS011;964;42.606;23.588;2023-05-20T13:50:39;6.80;;;6.10;;
1925;SDS011;964;42.606;23.588;2023-05-20T13:53:06;5.97;;;5.37;;
1925;SDS011;964;42.606;23.588;2023-05-20T13:55:36;6.70;;;6.10;;
1925;SDS011;964;42.606;23.588;2023-05-20T13:58:03;8.43;;;5.87;;
1925;SDS011;964;42.606;23.588;2023-05-20T14:00:33;6.60;;;5.83;;
1925;SDS011;964;42.606;23.588;2023-05-20T14:03:01;6.50;;;5.90;;
1925;SDS011;964;42.606;23.588;2023-05-20T14:05:28;6.40;;;5.70;;
1925;SDS011;964;42.606;23.588;2023-05-20T14:07:56;7.10;;;6.40;;
1925;SDS011;964;42.606;23.588;2023-05-20T14:10:23;9.70;;;6.70;;
1925;SDS011;964;42.606;23.588;2023-05-20T14:12:50;7.50;;;6.63;;
1925;SDS011;964;42.606;23.588;2023-05-20T14:15:18;6.50;;;5.60;;
1925;SDS011;964;42.606;23.588;2023-05-20T14:17:44;7.20;;;5.93;;
1925;SDS011;964;42.606;23.588;2023-05-20T14:20:13;5.97;;;5.37;;
1925;SDS011;964;42.606;23.588;2023-05-20T14:22:43;6.80;;;6.10;;
1925;SDS011;964;42.606;23.588;2023-05-20T14:25:09;9.20;;;7.75;;
1925;SDS011;964;42.606;23.588;2023-05-20T14:27:36;7.00;;;5.40;;
1925;SDS011;964;42.606;23.588;2023-05-20T14:30:03;8.70;;;5.83;;
1925;SDS011;964;42.606;23.588;2023-05-20T14:32:30;6.90;;;6.07;;
1925;SDS011;964;42.606;23.588;2023-05-20T14:34:57;9.60;;;6.70;;
1925;SDS011;964;42.606;23.588;2023-05-20T14:37:25;7.60;;;6.80;;
1925;SDS011;964;42.606;23.588;2023-05-20T14:39:52;8.70;;;7.70;;
1925;SDS011;964;42.606;23.588;2023-05-20T14:42:19;8.13;;;6.50;;
1925;SDS011;964;42.606;23.588;2023-05-20T14:44:45;12.27;;;6.70;;
1925;SDS011;964;42.606;23.588;2023-05-20T14:47:12;13.03;;;6.50;;
1925;SDS011;964;42.606;23.588;2023-05-20T14:49:43;6.67;;;5.97;;
1925;SDS011;964;42.606;23.588;2023-05-20T14:52:09;7.80;;;6.37;;
1925;SDS011;964;42.606;23.588;2023-05-20T14:54:37;8.50;;;6.20;;
1925;SDS011;964;42.606;23.588;2023-05-20T14:57:05;6.23;;;5.60;;
1925;SDS011;964;42.606;23.588;2023-05-20T14:59:31;7.40;;;5.30;;
1925;SDS011;964;42.606;23.588;2023-05-20T15:01:58;9.47;;;7.90;;
1925;SDS011;964;42.606;23.588;2023-05-20T15:04:25;9.20;;;7.67;;
1925;SDS011;964;42.606;23.588;2023-05-20T15:06:52;8.10;;;6.77;;
1925;SDS011;964;42.606;23.588;2023-05-20T15:09:19;11.40;;;6.57;;
1925;SDS011;964;42.606;23.588;2023-05-20T15:11:48;9.00;;;7.10;;
1925;SDS011;964;42.606;23.588;2023-05-20T15:14:14;7.90;;;6.57;;
1925;SDS011;964;42.606;23.588;2023-05-20T15:16:41;7.70;;;6.10;;
1925;SDS011;964;42.606;23.588;2023-05-20T15:19:08;7.00;;;6.30;;
1925;SDS011;964;42.606;23.588;2023-05-20T15:21:35;8.33;;;6.20;;
1925;SDS011;964;42.606;23.588;2023-05-20T15:24:01;8.88;;;6.82;;
1925;SDS011;964;42.606;23.588;2023-05-20T15:26:28;9.07;;;6.97;;
1925;SDS011;964;42.606;23.588;2023-05-20T15:28:57;7.50;;;6.50;;
1925;SDS011;964;42.606;23.588;2023-05-20T15:31:24;7.43;;;6.40;;
1925;SDS011;964;42.606;23.588;2023-05-20T15:33:50;7.13;;;6.43;;
1925;SDS011;964;42.606;23.588;2023-05-20T15:36:17;8.07;;;5.97;;
1925;SDS011;964;42.606;23.588;2023-05-20T15:38:44;7.90;;;7.10;;
1925;SDS011;964;42.606;23.588;2023-05-20T15:41:10;5.97;;;5.33;;
1925;SDS011;964;42.606;23.588;2023-05-20T15:43:38;8.03;;;6.17;;
1925;SDS011;964;42.606;23.588;2023-05-20T15:46:06;8.20;;;6.50;;
1925;SDS011;964;42.606;23.588;2023-05-20T15:48:33;8.23;;;6.23;;
1925;SDS011;964;42.606;23.588;2023-05-20T15:51:01;7.93;;;6.20;;
1925;SDS011;964;42.606;23.588;2023-05-20T15:53:28;6.30;;;5.60;;
1925;SDS011;964;42.606;23.588;2023-05-20T15:55:55;8.03;;;6.23;;
1925;SDS011;964;42.606;23.588;2023-05-20T15:58:21;7.20;;;5.93;;
1925;SDS011;964;42.606;23.588;2023-05-20T16:00:48;7.80;;;6.70;;
1925;SDS011;964;42.606;23.588;2023-05-20T16:03:16;8.20;;;5.90;;
1925;SDS011;964;42.606;23.588;2023-05-20T16:05:42;6.87;;;5.97;;
1925;SDS011;964;42.606;23.588;2023-05-20T16:08:09;8.17;;;5.93;;
1925;SDS011;964;42.606;23.588;2023-05-20T16:10:36;7.80;;;5.70;;
1925;SDS011;964;42.606;23.588;2023-05-20T16:13:02;7.33;;;6.40;;
1925;SDS011;964;42.606;23.588;2023-05-20T16:15:29;12.97;;;6.33;;
1925;SDS011;964;42.606;23.588;2023-05-20T16:17:59;10.90;;;6.20;;
1925;SDS011;964;42.606;23.588;2023-05-20T16:20:28;7.60;;;6.13;;
1925;SDS011;964;42.606;23.588;2023-05-20T16:22:54;10.93;;;6.53;;
1925;SDS011;964;42.606;23.588;2023-05-20T16:25:21;4.73;;;3.73;;
1925;SDS011;964;42.606;23.588;2023-05-20T16:27:48;6.30;;;4.30;;
1925;SDS011;964;42.606;23.588;2023-05-20T16:30:14;10.13;;;4.70;;
1925;SDS011;964;42.606;23.588;2023-05-20T16:32:41;5.20;;;4.50;;
1925;SDS011;964;42.606;23.588;2023-05-20T16:35:08;7.73;;;5.00;;
1925;SDS011;964;42.606;23.588;2023-05-20T16:37:36;7.80;;;5.30;;
1925;SDS011;964;42.606;23.588;2023-05-20T16:40:03;8.77;;;6.63;;
1925;SDS011;964;42.606;23.588;2023-05-20T16:42:31;8.60;;;5.57;;
1925;SDS011;964;42.606;23.588;2023-05-20T16:44:57;7.83;;;5.70;;
1925;SDS011;964;42.606;23.588;2023-05-20T16:47:24;10.07;;;5.97;;
1925;SDS011;964;42.606;23.588;2023-05-20T16:49:51;10.10;;;5.90;;
1925;SDS011;964;42.606;23.588;2023-05-20T16:52:18;7.30;;;5.30;;
1925;SDS011;964;42.606;23.588;2023-05-20T16:54:46;8.33;;;5.83;;
1925;SDS011;964;42.606;23.588;2023-05-20T16:57:15;9.00;;;5.93;;
1925;SDS011;964;42.606;23.588;2023-05-20T16:59:42;6.60;;;5.63;;
1925;SDS011;964;42.606;23.588;2023-05-20T17:02:09;7.60;;;5.77;;
1925;SDS011;964;42.606;23.588;2023-05-20T17:04:36;7.60;;;5.10;;
1925;SDS011;964;42.606;23.588;2023-05-20T17:07:02;8.53;;;5.77;;
1925;SDS011;964;42.606;23.588;2023-05-20T17:09:33;6.90;;;5.30;;
1925;SDS011;964;42.606;23.588;2023-05-20T17:12:02;6.73;;;5.80;;
1925;SDS011;964;42.606;23.588;2023-05-20T17:14:29;6.97;;;5.90;;
1925;SDS011;964;42.606;23.588;2023-05-20T17:16:55;6.37;;;5.13;;
1925;SDS011;964;42.606;23.588;2023-05-20T17:19:22;12.47;;;6.30;;
1925;SDS011;964;42.606;23.588;2023-05-20T17:21:49;13.00;;;5.33;;
1925;SDS011;964;42.606;23.588;2023-05-20T17:24:15;10.37;;;6.47;;
1925;SDS011;964;42.606;23.588;2023-05-20T17:26:42;9.37;;;5.60;;
1925;SDS011;964;42.606;23.588;2023-05-20T17:29:10;10.00;;;6.33;;
1925;SDS011;964;42.606;23.588;2023-05-20T17:31:37;14.43;;;7.97;;
1925;SDS011;964;42.606;23.588;2023-05-20T17:34:04;14.60;;;7.47;;
1925;SDS011;964;42.606;23.588;2023-05-20T17:36:30;9.10;;;6.20;;
1925;SDS011;964;42.606;23.588;2023-05-20T17:38:57;12.00;;;6.33;;
1925;SDS011;964;42.606;23.588;2023-05-20T17:41:24;20.07;;;8.40;;
1925;SDS011;964;42.606;23.588;2023-05-20T17:43:51;12.10;;;6.57;;
1925;SDS011;964;42.606;23.588;2023-05-20T17:46:20;7.70;;;6.33;;
1925;SDS011;964;42.606;23.588;2023-05-20T17:48:46;7.40;;;5.17;;
1925;SDS011;964;42.606;23.588;2023-05-20T17:51:13;6.60;;;5.50;;
1925;SDS011;964;42.606;23.588;2023-05-20T17:53:40;5.60;;;4.80;;
1925;SDS011;964;42.606;23.588;2023-05-20T17:56:07;7.10;;;5.60;;
1925;SDS011;964;42.606;23.588;2023-05-20T17:58:34;7.73;;;5.07;;
1925;SDS011;964;42.606;23.588;2023-05-20T18:01:00;10.80;;;6.00;;
1925;SDS011;964;42.606;23.588;2023-05-20T18:03:28;9.47;;;5.87;;
1925;SDS011;964;42.606;23.588;2023-05-20T18:05:55;7.37;;;6.13;;
1925;SDS011;964;42.606;23.588;2023-05-20T18:08:22;7.20;;;6.50;;
1925;SDS011;964;42.606;23.588;2023-05-20T18:10:49;12.07;;;8.37;;
1925;SDS011;964;42.606;23.588;2023-05-20T18:13:16;9.73;;;7.17;;
1925;SDS011;964;42.606;23.588;2023-05-20T18:15:43;18.33;;;10.37;;
1925;SDS011;964;42.606;23.588;2023-05-20T18:18:09;16.57;;;8.70;;
1925;SDS011;964;42.606;23.588;2023-05-20T18:20:38;11.77;;;8.60;;
1925;SDS011;964;42.606;23.588;2023-05-20T18:23:04;13.00;;;10.50;;
1925;SDS011;964;42.606;23.588;2023-05-20T18:25:31;14.67;;;9.10;;
1925;SDS011;964;42.606;23.588;2023-05-20T18:27:58;9.20;;;7.20;;
1925;SDS011;964;42.606;23.588;2023-05-20T18:30:24;10.60;;;7.50;;
1925;SDS011;964;42.606;23.588;2023-05-20T18:32:51;9.90;;;7.17;;
1925;SDS011;964;42.606;23.588;2023-05-20T18:35:18;12.43;;;7.87;;
1925;SDS011;964;42.606;23.588;2023-05-20T18:37:46;9.70;;;6.30;;
1925;SDS011;964;42.606;23.588;2023-05-20T18:40:13;13.37;;;8.20;;
1925;SDS011;964;42.606;23.588;2023-05-20T18:42:40;10.43;;;8.20;;
1925;SDS011;964;42.606;23.588;2023-05-20T18:45:07;13.30;;;8.47;;
1925;SDS011;964;42.606;23.588;2023-05-20T18:47:34;8.73;;;7.53;;
1925;SDS011;964;42.606;23.588;2023-05-20T18:50:01;9.63;;;7.10;;
1925;SDS011;964;42.606;23.588;2023-05-20T18:52:27;11.67;;;7.17;;
1925;SDS011;964;42.606;23.588;2023-05-20T18:54:56;12.23;;;8.00;;
1925;SDS011;964;42.606;23.588;2023-05-20T18:57:22;9.20;;;7.87;;
1925;SDS011;964;42.606;23.588;2023-05-20T18:59:49;10.20;;;7.37;;
1925;SDS011;964;42.606;23.588;2023-05-20T19:02:16;9.07;;;7.40;;
1925;SDS011;964;42.606;23.588;2023-05-20T19:04:43;11.83;;;7.43;;
1925;SDS011;964;42.606;23.588;2023-05-20T19:07:10;6.70;;;6.00;;
1925;SDS011;964;42.606;23.588;2023-05-20T19:09:36;11.93;;;6.80;;
1925;SDS011;964;42.606;23.588;2023-05-20T19:12:05;11.03;;;7.23;;
1925;SDS011;964;42.606;23.588;2023-05-20T19:14:32;13.47;;;9.17;;
1925;SDS011;964;42.606;23.588;2023-05-20T19:16:59;9.10;;;7.83;;
1925;SDS011;964;42.606;23.588;2023-05-20T19:19:26;12.23;;;8.30;;
1925;SDS011;964;42.606;23.588;2023-05-20T19:21:53;15.60;;;9.17;;
1925;SDS011;964;42.606;23.588;2023-05-20T19:24:19;10.60;;;8.20;;
1925;SDS011;964;42.606;23.588;2023-05-20T19:26:46;15.57;;;11.50;;
1925;SDS011;964;42.606;23.588;2023-05-20T19:29:14;14.77;;;9.80;;
1925;SDS011;964;42.606;23.588;2023-05-20T19:31:41;10.43;;;8.60;;
1925;SDS011;964;42.606;23.588;2023-05-20T19:34:08;17.20;;;9.57;;
1925;SDS011;964;42.606;23.588;2023-05-20T19:36:35;13.17;;;9.10;;
1925;SDS011;964;42.606;23.588;2023-05-20T19:39:03;10.43;;;7.93;;
1925;SDS011;964;42.606;23.588;2023-05-20T19:41:31;9.53;;;7.90;;
1925;SDS011;964;42.606;23.588;2023-05-20T19:43:58;8.47;;;7.50;;
1925;SDS011;964;42.606;23.588;2023-05-20T19:46:26;8.20;;;6.90;;
1925;SDS011;964;42.606;23.588;2023-05-20T19:48:54;9.90;;;6.57;;
1925;SDS011;964;42.606;23.588;2023-05-20T19:51:21;7.80;;;7.00;;
1925;SDS011;964;42.606;23.588;2023-05-20T19:53:47;11.57;;;8.10;;
1925;SDS011;964;42.606;23.588;2023-05-20T19:56:14;13.70;;;7.60;;
1925;SDS011;964;42.606;23.588;2023-05-20T19:58:43;11.30;;;7.50;;
1925;SDS011;964;42.606;23.588;2023-05-20T20:01:10;8.90;;;7.20;;
1925;SDS011;964;42.606;23.588;2023-05-20T20:03:39;9.53;;;7.57;;
1925;SDS011;964;42.606;23.588;2023-05-20T20:06:06;7.23;;;6.53;;
1925;SDS011;964;42.606;23.588;2023-05-20T20:08:34;8.77;;;7.30;;
1925;SDS011;964;42.606;23.588;2023-05-20T20:11:01;9.43;;;6.43;;
1925;SDS011;964;42.606;23.588;2023-05-20T20:13:28;7.40;;;6.50;;
1925;SDS011;964;42.606;23.588;2023-05-20T20:15:55;10.47;;;7.47;;
1925;SDS011;964;42.606;23.588;2023-05-20T20:18:22;10.00;;;7.90;;
1925;SDS011;964;42.606;23.588;2023-05-20T20:20:51;17.87;;;11.97;;
1925;SDS011;964;42.606;23.588;2023-05-20T20:23:18;17.03;;;11.73;;
1925;SDS011;964;42.606;23.588;2023-05-20T20:25:45;12.57;;;9.13;;
1925;SDS011;964;42.606;23.588;2023-05-20T20:28:14;10.03;;;8.40;;
1925;SDS011;964;42.606;23.588;2023-05-20T20:30:41;9.17;;;7.90;;
1925;SDS011;964;42.606;23.588;2023-05-20T20:33:07;12.67;;;7.47;;
1925;SDS011;964;42.606;23.588;2023-05-20T20:35:35;9.43;;;7.50;;
1925;SDS011;964;42.606;23.588;2023-05-20T20:38:04;14.30;;;8.03;;
1925;SDS011;964;42.606;23.588;2023-05-20T20:40:34;10.00;;;7.53;;
1925;SDS011;964;42.606;23.588;2023-05-20T20:43:03;8.30;;;7.37;;
1925;SDS011;964;42.606;23.588;2023-05-20T20:45:30;8.03;;;6.47;;
1925;SDS011;964;42.606;23.588;2023-05-20T20:47:57;8.53;;;7.73;;
1925;SDS011;964;42.606;23.588;2023-05-20T20:50:25;9.77;;;8.30;;
1925;SDS011;964;42.606;23.588;2023-05-20T20:52:52;10.73;;;8.27;;
1925;SDS011;964;42.606;23.588;2023-05-20T20:55:20;8.83;;;7.93;;
1925;SDS011;964;42.606;23.588;2023-05-20T20:57:47;10.77;;;8.10;;
1925;SDS011;964;42.606;23.588;2023-05-20T21:00:15;10.80;;;8.67;;
1925;SDS011;964;42.606;23.588;2023-05-20T21:02:45;10.57;;;7.87;;
1925;SDS011;964;42.606;23.588;2023-05-20T21:05:12;10.63;;;8.00;;
1925;SDS011;964;42.606;23.588;2023-05-20T21:11:11;15.90;;;10.27;;
1925;SDS011;964;42.606;23.588;2023-05-20T21:13:37;11.00;;;8.30;;
1925;SDS011;964;42.606;23.588;2023-05-20T21:16:04;11.90;;;7.80;;
1925;SDS011;964;42.606;23.588;2023-05-20T21:18:31;17.97;;;9.70;;
1925;SDS011;964;42.606;23.588;2023-05-20T21:20:58;13.73;;;8.50;;
1925;SDS011;964;42.606;23.588;2023-05-20T21:23:24;15.23;;;7.17;;
1925;SDS011;964;42.606;23.588;2023-05-20T21:25:51;12.53;;;7.70;;